Paul R Tregurtha — WYR4481 — position and weather

sailwx.info

Track history (hours):
 
Tides and Currents Weather Stations Pressure Air Temp Water Temp Dewpoint Dewpoint Depression Visibility Wind Speed Wind Dir Waves Ship Positions

Paul R Tregurtha

Owner: THE INTERLAKE STEAMSHIP COMPANY, Middleburg Heights, OH. More information available from US FCC via Universal Licensing System and Coast Guard Vessel Documentation Center.

Last reported at 2017-Dec-18 10:00 UTC. Time now 2017-Dec-18 11:08 UTC.
Position N 46°48' W 084°54'.

Length 309 m; draft 7 m.

Type: Cargo ship. MMSI: 366904940.

Wind from 170 at 14 knots

Barometer 1011.9 mb
Air temperature -2.0 ° C
Water temperature 3.0 ° C

Date/timePositionNaut miles runAvg speedWind from/ knotsBaromVisibWave heightAir tempDewpointWater temp
2017-Dec-18 10:00N 46°48' W 084°54'1514.6 170 / 141011.9 -2.0 3.0
2017-Dec-18 09:00N 46°36' W 084°42'1010.2 140 / 161012.2 -4.4 3.4
2017-Dec-18 08:00N 46°30' W 084°30'4 4.1 080 / 71013.5 -5.8 1.4
2017-Dec-18 07:00N 46°30' W 084°24'4 4.1 070 / 41013.9 -4.4 1.1
2017-Dec-18 06:00N 46°30' W 084°18'7 7.3 080 / 61015.0 -6.4 1.0
2017-Dec-18 05:00N 46°24' W 084°12'7 7.3 100 / 51015.7 -6.5 0.8
2017-Dec-18 04:00N 46°18' W 084°06'6 6.0 120 / 71016.0 -6.6 0.4
2017-Dec-18 03:00N 46°12' W 084°06'7 7.3 070 / 51016.4 -5.2 0.7
2017-Dec-18 02:00N 46°06' W 084°00'1312.7 100 / 111017.1 -4.6 0.9
2017-Dec-18 01:00N 45°54' W 083°54'1516.6 150 / 151017.1 -0.7 4.2
2017-Dec-18 00:05N 45°42' W 083°41'113.8
2017-Dec-18 00:00N 45°41' W 083°40'2302.6
2017-Dec-18 00:00N 45°42' W 083°42'817.2 160 / 161018.1 -1.5 5.7
2017-Dec-17 23:30N 45°36' W 083°34'713.8
2017-Dec-17 23:00N 45°30' W 083°29'183.7
2017-Dec-17 23:00N 45°30' W 083°30'815.5 170 / 121019.4 -1.5 5.0
2017-Dec-17 22:30N 45°24' W 083°23'714.0
2017-Dec-17 22:00N 45°18' W 083°18'1514.7 150 / 101020.1 -2.1 5.1
2017-Dec-17 21:00N 45°06' W 083°06'1312.7 160 / 131020.4 -2.4 4.9
2017-Dec-17 20:00N 44°54' W 083°00'1312.7 130 / 131020.8 -3.1 5.0
2017-Dec-17 19:00N 44°42' W 082°54'1312.7 140 / 111021.8 -3.4 5.3
2017-Dec-17 18:00N 44°30' W 082°48'4013.3 130 / 121022.1 -3.6 5.2
2017-Dec-17 15:00N 43°54' W 082°24'1212.0 100 / 131023.8 -3.4 5.4
2017-Dec-17 14:00N 43°42' W 082°24'1212.0 100 / 131023.8 -3.4 5.0
2017-Dec-17 13:00N 43°30' W 082°24'1818.0 110 / 141024.2 -3.0 3.8
2017-Dec-17 12:00N 43°12' W 082°24'1212.0 100 / 121023.8 -3.2 3.9
2017-Dec-17 11:00N 43°00' W 082°24'7 7.4 100 / 111023.5 -4.7 3.0
2017-Dec-17 10:00N 42°54' W 082°30'6 6.0 120 / 71023.5 -4.8 2.5
2017-Dec-17 09:00N 42°48' W 082°30'1212.0 070 / 91022.8 -5.3 2.4
2017-Dec-17 08:00N 42°36' W 082°30'1110.7 080 / 61022.5 -5.2 2.4
2017-Dec-17 07:00N 42°30' W 082°42'7 7.5 060 / 111021.6 -4.7 2.1
2017-Dec-17 06:00N 42°24' W 082°48'33 1.0 060 / 101021.9 -3.6 0.2
2017-Dec-15 20:00N 41°54' W 083°06'1212.0 230 / 321009.0 -2.7 0.2
2017-Dec-15 19:00N 42°06' W 083°06'6 6.0 260 / 251008.3 -3.5 0.3
2017-Dec-15 18:00N 42°12' W 083°06'7 7.5 260 / 191007.7 -4.0 0.4
2017-Dec-15 17:00N 42°18' W 083°00'1110.7 220 / 121009.8 -4.6 0.4
2017-Dec-15 16:00N 42°24' W 082°48'1110.7 220 / 201009.8 -4.5 0.7
2017-Dec-15 15:00N 42°30' W 082°36'1312.8 220 / 191011.1 -4.1 3.0
2017-Dec-15 14:00N 42°42' W 082°30'6 6.0 230 / 101012.3 -4.7 3.0
2017-Dec-15 13:00N 42°48' W 082°30'0 0.0 250 / 71013.0 -4.3 5.0
2017-Dec-15 12:00N 42°48' W 082°30'0 0.0 270 / 91013.3 -5.6 5.3
2017-Dec-15 11:00N 42°48' W 082°30'0 0.0 290 / 51014.0 -6.0 5.2
2017-Dec-15 10:00N 42°48' W 082°30'0 0.0 280 / 31014.7 -7.1 5.0
2017-Dec-15 09:00N 42°48' W 082°30'0 0.0 290 / 31015.4 -7.7 5.0
2017-Dec-15 08:00N 42°48' W 082°30'0 0.0 260 / 21016.0 -7.1 4.7
2017-Dec-15 07:00N 42°48' W 082°30'0 0.0 290 / 11016.4 -7.8 5.3
2017-Dec-15 06:00N 42°48' W 082°30'0 0.0 270 / 11017.1 -7.6 5.0
2017-Dec-15 05:00N 42°48' W 082°30'0 0.0 320 / 21017.7 -10.6 5.1
2017-Dec-15 04:00N 42°48' W 082°30'0 0.0 260 / 51018.1 -8.6 4.7
2017-Dec-15 03:00N 42°48' W 082°30'0 0.0 310 / 21018.4 -10.0 4.8
2017-Dec-15 02:00N 42°48' W 082°30'6 6.0 160 / 31018.4 -9.5 3.2
2017-Dec-15 01:00N 42°54' W 082°30'7 7.4 260 / 41018.4 -10.4 3.0
2017-Dec-15 00:00N 43°00' W 082°24'1212.0 230 / 81017.7 -8.6 3.0
2017-Dec-14 23:00N 43°12' W 082°24'1212.0 260 / 131016.7 -8.6 4.3
2017-Dec-14 22:00N 43°24' W 082°24'1312.8 290 / 141016.4 -9.0 3.3
2017-Dec-14 21:00N 43°36' W 082°30'1212.0 270 / 141016.0 -8.9 4.9
2017-Dec-14 20:00N 43°48' W 082°30'1918.5 290 / 171015.4 -7.8 5.5
2017-Dec-14 19:00N 44°06' W 082°36'1312.7 280 / 141015.4 -6.7 5.6
2017-Dec-14 18:00N 44°18' W 082°42'3110.4 310 / 141015.4 -7.5 5.6
2017-Dec-14 15:00N 44°48' W 082°54'1312.7 310 / 201014.0 -8.5 5.2
2017-Dec-14 14:00N 45°00' W 083°00'1514.7 330 / 211013.0 -8.0 5.3
2017-Dec-14 13:00N 45°12' W 083°12'1216.0 350 / 19 -9.7
2017-Dec-14 12:14N 45°23' W 083°19'312.8
2017-Dec-14 12:00N 45°25' W 083°21'3187.7
2017-Dec-14 12:00N 45°24' W 083°18'918.4 320 / 151012.0 -10.8 5.3
2017-Dec-14 11:30N 45°31' W 083°26'612.7
2017-Dec-14 11:00N 45°36' W 083°32'1121.6
2017-Dec-14 11:00N 45°36' W 083°30'714.3 310 / 14 -11.4
2017-Dec-14 10:30N 45°41' W 083°37'612.5
2017-Dec-14 10:01N 45°46' W 083°42'1211.3
2017-Dec-14 09:00N 45°54' W 083°54'1312.7 010 / 121010.6 -16.0 1.0
2017-Dec-14 08:00N 46°06' W 084°00'7 7.3 350 / 101010.6 -18.0 0.3
2017-Dec-14 07:00N 46°12' W 084°06'4 4.2 350 / 91009.9 -18.3 0.3
2017-Dec-14 06:00N 46°12' W 084°12'6 6.0 360 / 71009.6 -17.9 0.3
2017-Dec-14 05:00N 46°18' W 084°12'1312.7 350 / 91009.3 -16.1 0.5
2017-Dec-14 04:00N 46°30' W 084°18'0 0.0 1008.9 -17.2 1.0
2017-Dec-14 03:00N 46°30' W 084°18'4 4.1 070 / 31008.3 -16.8 1.2
2017-Dec-14 02:00N 46°30' W 084°24'0 0.0 060 / 71007.8 -15.9 1.2
2017-Dec-14 01:00N 46°30' W 084°24'0 0.0 080 / 81007.5 -14.8 1.2
2017-Dec-14 00:00N 46°30' W 084°24'0 0.0 030 / 61007.1 -13.2 1.2
2017-Dec-13 23:00N 46°30' W 084°24'169 9.9 100 / 81006.4 -12.5 1.3
2017-Dec-13 06:00N 47°36' W 088°12'1212.1 180 / 141008.5 -8.9 4.6
2017-Dec-13 05:00N 47°36' W 088°30'1413.5 330 / 21009.8 -9.2 4.7
2017-Dec-13 04:00N 47°30' W 088°48'1212.2 060 / 31010.5 -9.2 4.8
2017-Dec-13 03:00N 47°30' W 089°06'1413.6 210 / 41011.5 -9.2 4.7
2017-Dec-13 02:00N 47°24' W 089°24'1212.2 170 / 31012.5 -9.2 4.8
2017-Dec-13 01:00N 47°24' W 089°42'1212.2 270 / 21013.5 -9.5 4.8
2017-Dec-13 00:00N 47°24' W 090°00'1413.6 230 / 21013.5 -9.7 4.2
2017-Dec-12 23:00N 47°18' W 090°18'8 8.1 220 / 51014.2 -9.6 4.0
2017-Dec-12 22:00N 47°18' W 090°30'1413.6 180 / 41014.9 -9.4 3.8
2017-Dec-12 21:00N 47°12' W 090°48'1413.6 240 / 61015.6 -9.3 4.5
2017-Dec-12 20:00N 47°06' W 091°06'1413.7 240 / 61016.6 -9.9 4.6
2017-Dec-12 19:00N 47°00' W 091°24'1111.0 230 / 61017.6 -10.5 4.5
2017-Dec-12 18:00N 46°56' W 091°39'3190.5
2017-Dec-12 18:00N 46°54' W 091°36'715.1 250 / 71019.3 -11.5 4.2
2017-Dec-12 17:31N 46°53' W 091°47'612.1
2017-Dec-12 17:00N 46°51' W 091°55'3280.8
2017-Dec-12 17:00N 46°48' W 091°54'611.7 260 / 71020.7 -12.6 3.4
2017-Dec-12 16:31N 46°48' W 092°02'3 6.4
2017-Dec-12 16:00N 46°46' W 092°06'2187.9
2017-Dec-12 16:00N 46°48' W 092°06'3 6.4 200 / 41021.3 -14.5 0.7
2017-Dec-12 15:27N 46°45' W 092°07'0 0.0
2017-Dec-12 15:00N 46°45' W 092°07'31192.0
2017-Dec-12 15:00N 46°42' W 092°06'3 5.3 280 / 51022.0 -13.2 0.3
2017-Dec-12 14:30N 46°45' W 092°07'3 5.3
2017-Dec-12 14:00N 46°42' W 092°06'355.1 290 / 101022.4 -14.9 0.4
2017-Dec-12 13:57N 46°45' W 092°07'0 0.0
2017-Dec-12 13:27N 46°45' W 092°07'3 5.9
2017-Dec-12 13:00N 46°42' W 092°06'357.1 320 / 71022.7 -15.4 0.5
2017-Dec-12 12:57N 46°45' W 092°07'0 0.0
2017-Dec-12 12:30N 46°45' W 092°07'3 5.3
2017-Dec-12 12:00N 46°42' W 092°06'355.4 280 / 71023.0 -13.7 0.5
2017-Dec-12 11:57N 46°45' W 092°07'0 0.0
2017-Dec-12 11:30N 46°45' W 092°07'0 0.0
2017-Dec-12 11:00N 46°45' W 092°07'31059.5
2017-Dec-12 11:00N 46°42' W 092°06'3 5.3 260 / 81023.7 -13.0 0.4
2017-Dec-12 10:30N 46°45' W 092°07'0 0.0
2017-Dec-12 10:00N 46°45' W 092°07'31358.8
2017-Dec-12 10:00N 46°42' W 092°06'3 5.3 330 / 81023.7 -12.8 0.6
2017-Dec-12 09:30N 46°45' W 092°07'0 0.0
2017-Dec-12 09:00N 46°45' W 092°07'31907.2
2017-Dec-12 09:00N 46°42' W 092°06'3 5.3 230 / 41023.7 -11.9 0.8
2017-Dec-12 08:30N 46°45' W 092°07'0 0.0
2017-Dec-12 08:00N 46°45' W 092°07'0 0.0
2017-Dec-12 07:30N 46°45' W 092°07'0 0.0
2017-Dec-12 07:00N 46°45' W 092°07'32384.0
2017-Dec-12 07:00N 46°42' W 092°06'3 5.3 290 / 51023.4 -11.5 0.9
2017-Dec-12 06:30N 46°45' W 092°07'0 0.0
2017-Dec-12 06:00N 46°45' W 092°07'31907.2
2017-Dec-12 06:00N 46°42' W 092°06'3 4.8 310 / 61023.4 -11.1 0.7
2017-Dec-12 05:27N 46°45' W 092°07'3 5.9
2017-Dec-12 05:00N 46°42' W 092°06'326.9 330 / 91023.0 -10.6 0.7
2017-Dec-12 04:54N 46°45' W 092°07'0 0.0
2017-Dec-12 04:30N 46°45' W 092°07'3 5.3
2017-Dec-12 04:00N 46°42' W 092°06'354.2 280 / 61022.7 -9.3 0.6
2017-Dec-12 03:57N 46°45' W 092°07'0 0.1
2017-Dec-12 03:24N 46°45' W 092°07'0 0.1
2017-Dec-12 03:00N 46°45' W 092°07'33222.2
2017-Dec-12 03:00N 46°42' W 092°06'3 5.6 330 / 101022.0 -8.8 0.6
2017-Dec-12 02:26N 46°45' W 092°06'3 6.5
2017-Dec-12 02:00N 46°48' W 092°06'2382.7 280 / 41021.3 -5.9 1.1
2017-Dec-12 01:59N 46°46' W 092°06'0 0.0
2017-Dec-12 01:30N 46°46' W 092°06'0 0.0
2017-Dec-12 01:00N 46°46' W 092°06'2200.0
2017-Dec-12 01:00N 46°48' W 092°06'2 4.3 320 / 41020.3 -6.3 1.2
2017-Dec-12 00:30N 46°46' W 092°06'4 7.4
2017-Dec-12 00:00N 46°48' W 092°02'183.3
2017-Dec-12 00:00N 46°48' W 092°00'611.3 320 / 131019.0 -6.5 3.5
2017-Dec-11 23:30N 46°51' W 091°53'713.0
2017-Dec-11 23:00N 46°55' W 091°46'2151.8
2017-Dec-11 23:00N 46°54' W 091°48'1717.2 340 / 151017.3 -6.1 4.7
2017-Dec-11 22:00N 47°06' W 091°30'1010.1 350 / 221015.9 -5.3 4.7
2017-Dec-11 21:00N 47°12' W 091°18'6 6.0 350 / 211013.5 -4.9 4.8
2017-Dec-11 20:00N 47°18' W 091°18'0 0.0 260 / 131012.2 -3.2 3.4
2017-Dec-11 19:00N 47°18' W 091°18'0 0.0 270 / 141010.8 -2.2 3.3
2017-Dec-11 18:00N 47°18' W 091°18'0 0.0 270 / 101009.8 -1.8 3.3
2017-Dec-11 17:00N 47°18' W 091°18'0 0.0 260 / 141008.5 -1.2 3.2
2017-Dec-11 16:00N 47°18' W 091°18'0 0.0 120 / 41008.5 -3.0 3.2
2017-Dec-11 15:00N 47°18' W 091°18'0 0.0 120 / 31008.1 -2.9 3.2
2017-Dec-11 14:00N 47°18' W 091°18'0 0.0 090 / 21007.8 -3.2 3.2
2017-Dec-11 13:00N 47°18' W 091°18'0 0.0 180 / 51007.8 -4.0 3.1
2017-Dec-11 12:00N 47°18' W 091°18'0 0.0 150 / 61008.1 -4.5 3.0
2017-Dec-11 11:00N 47°18' W 091°18'0 0.0 150 / 81009.1 -5.0 3.2
2017-Dec-11 10:00N 47°18' W 091°18'0 0.0 140 / 61010.2 -5.4 3.4
2017-Dec-11 09:00N 47°18' W 091°18'0 0.0 110 / 11010.8 -5.0 3.4
2017-Dec-11 08:00N 47°18' W 091°18'0 0.0 260 / 21012.5 -5.6 3.5
2017-Dec-11 07:00N 47°18' W 091°18'0 0.0 240 / 21013.9 -6.7 3.5
2017-Dec-11 06:00N 47°18' W 091°18'0 0.0 230 / 61015.2 -9.0 3.5
2017-Dec-11 05:00N 47°18' W 091°18'0 0.0 220 / 61015.6 -9.6 3.6
2017-Dec-11 04:00N 47°18' W 091°18'0 0.0 240 / 81016.3 -10.3 3.6
2017-Dec-11 03:00N 47°18' W 091°18'6 6.0 330 / 41016.9 -7.7 4.8
2017-Dec-11 02:00N 47°12' W 091°18'1514.5 330 / 51017.3 -6.7 4.8
2017-Dec-11 01:00N 47°00' W 091°30'1115.6 1017.6 -6.1 4.6
2017-Dec-11 00:18N 46°56' W 091°44'412.3
2017-Dec-11 00:01N 46°53' W 091°49'141.9
2017-Dec-11 00:00N 46°54' W 091°48'714.1 300 / 51017.9 -5.8 4.0
2017-Dec-10 23:30N 46°50' W 091°56'611.8
2017-Dec-10 23:01N 46°47' W 092°04'3160.3
2017-Dec-10 23:00N 46°48' W 092°00'5 9.7 340 / 91018.3 -5.8 2.6
2017-Dec-10 22:31N 46°45' W 092°06'1 2.3
2017-Dec-10 22:00N 46°45' W 092°07'3198.7
2017-Dec-10 22:00N 46°42' W 092°06'3 5.4 320 / 71018.3 -5.3 1.4
2017-Dec-10 21:30N 46°45' W 092°07'0 0.0
2017-Dec-10 21:00N 46°45' W 092°07'3202.9
2017-Dec-10 21:00N 46°42' W 092°06'3 5.5 330 / 81017.6 -4.8 1.0
2017-Dec-10 20:30N 46°45' W 092°07'0 0.0
2017-Dec-10 20:00N 46°45' W 092°07'3176.6
2017-Dec-10 20:00N 46°42' W 092°06'3 5.4 300 / 131017.3 -4.9 0.9
2017-Dec-10 19:30N 46°45' W 092°07'0 0.0
2017-Dec-10 19:00N 46°45' W 092°07'3202.4
2017-Dec-10 19:00N 46°42' W 092°06'3 5.5 300 / 71016.9 -4.7 0.7
2017-Dec-10 18:30N 46°45' W 092°07'0 0.0
2017-Dec-10 18:00N 46°45' W 092°07'3179.9
2017-Dec-10 18:00N 46°42' W 092°06'3 5.4 330 / 81016.6 -5.2 0.9
2017-Dec-10 17:30N 46°45' W 092°07'0 0.0
2017-Dec-10 17:00N 46°45' W 092°07'3198.2
2017-Dec-10 17:00N 46°42' W 092°06'3 5.4 320 / 161016.6 -5.5 0.9
2017-Dec-10 16:30N 46°45' W 092°07'0 0.0
2017-Dec-10 16:00N 46°45' W 092°07'3179.9
2017-Dec-10 16:00N 46°42' W 092°06'3 5.4 340 / 121015.9 -5.6 0.8
2017-Dec-10 15:30N 46°45' W 092°07'3 5.2
2017-Dec-10 15:00N 46°42' W 092°06'319.3 1014.9 -5.4 0.9
2017-Dec-10 14:51N 46°45' W 092°07'0 0.0
2017-Dec-10 14:30N 46°45' W 092°07'0 0.0
2017-Dec-10 14:00N 46°45' W 092°07'3207.3
2017-Dec-10 14:00N 46°42' W 092°06'3 4.9 060 / 101013.9 -5.5 0.9
2017-Dec-10 13:27N 46°45' W 092°07'0 0.0
2017-Dec-10 13:00N 46°45' W 092°07'3198.7
2017-Dec-10 13:00N 46°42' W 092°06'3 5.5 100 / 91013.2 -4.9 0.8
2017-Dec-10 12:30N 46°45' W 092°07'0 0.1
2017-Dec-10 12:00N 46°45' W 092°07'3163.7
2017-Dec-10 12:00N 46°42' W 092°06'3 5.7 270 / 71012.2 -4.8 0.8
2017-Dec-10 11:31N 46°45' W 092°07'1 2.1
2017-Dec-10 11:01N 46°46' W 092°06'2144.5
2017-Dec-10 11:00N 46°48' W 092°06'3 7.1 320 / 131011.5 -3.2 1.1
2017-Dec-10 10:30N 46°48' W 092°01'612.6
2017-Dec-10 10:00N 46°51' W 091°52'3254.1
2017-Dec-10 10:00N 46°48' W 091°54'917.3 320 / 101010.2 -4.2 4.1
2017-Dec-10 09:30N 46°53' W 091°43'612.7
2017-Dec-10 09:00N 46°55' W 091°35'198.5
2017-Dec-10 09:00N 46°54' W 091°36'714.6 290 / 101009.5 -4.4 4.8
2017-Dec-10 08:29N 46°57' W 091°26'612.8
2017-Dec-10 08:00N 47°00' W 091°18'8 8.2 280 / 131009.1 -4.0 4.4
2017-Dec-10 07:00N 47°00' W 091°06'1413.7 260 / 171008.8 -3.9 4.3
2017-Dec-10 06:00N 47°06' W 090°48'1413.6 260 / 181009.1 -4.8 3.8
2017-Dec-10 05:00N 47°12' W 090°30'8 8.2 220 / 171009.5 -5.2 4.0
2017-Dec-10 04:00N 47°12' W 090°18'1212.2 210 / 181010.2 -6.2 4.7
2017-Dec-10 03:00N 47°12' W 090°00'1413.6 210 / 181011.2 -6.2 4.9
2017-Dec-10 02:00N 47°18' W 089°42'8 8.1 260 / 191011.9 -6.0 5.0
2017-Dec-10 01:00N 47°18' W 089°30'1413.6 250 / 161012.2 -5.5 4.8
2017-Dec-10 00:00N 47°24' W 089°12'1212.2 270 / 171013.2 -6.1 4.8
2017-Dec-09 23:00N 47°24' W 088°54'1413.6 290 / 171013.2 -6.9 4.9
2017-Dec-09 22:00N 47°30' W 088°36'1212.2 270 / 131013.9 -8.2 4.7
2017-Dec-09 21:00N 47°30' W 088°18'1212.2 290 / 141013.9 -9.5 4.8
2017-Dec-09 20:00N 47°30' W 088°00'1212.2 330 / 121013.9 -8.6 4.8
2017-Dec-09 19:00N 47°30' W 087°42'1212.2 340 / 81014.2 -9.0 4.8
2017-Dec-09 18:00N 47°30' W 087°24'8 8.1 350 / 171013.9 -8.7 4.8
2017-Dec-09 17:00N 47°30' W 087°12'1010.1 360 / 181013.5 -8.6 4.7
2017-Dec-09 16:00N 47°24' W 087°00'1010.1 1012.5 -8.4 4.8
2017-Dec-09 15:00N 47°18' W 086°48'7610.8 020 / 201012.2 5.4 -8.3 4.8
2017-Dec-09 08:00N 46°48' W 085°06'1010.2 170 / 151008.5 -6.2 4.7
2017-Dec-09 07:00N 46°42' W 084°54'1010.2 160 / 121008.1 -6.1 5.9
2017-Dec-09 06:00N 46°36' W 084°42'1010.2 140 / 181007.8 -7.1 5.7
2017-Dec-09 05:00N 46°30' W 084°30'4 4.1 120 / 111008.8 -8.7 4.1
2017-Dec-09 04:00N 46°30' W 084°24'4 4.1 110 / 71009.1 -8.8 3.9
2017-Dec-09 03:00N 46°30' W 084°18'6 6.0 100 / 71009.3 -7.1 3.5
2017-Dec-09 02:00N 46°24' W 084°18'4 4.1 100 / 71008.9 -8.1 3.5
2017-Dec-09 01:00N 46°24' W 084°12'7 7.3 060 / 81008.6 -8.6 3.3
2017-Dec-09 00:00N 46°18' W 084°06'1312.7 080 / 61008.6 -8.7 3.1
2017-Dec-08 23:00N 46°06' W 084°00'7 7.3 320 / 41008.9 -7.5 3.1
2017-Dec-08 22:00N 46°00' W 083°54'1312.7 010 / 61007.9 -6.9 4.6
2017-Dec-08 21:00N 45°48' W 083°48'813.7 330 / 151007.2 -6.0 6.1
2017-Dec-08 20:25N 45°42' W 083°41'3 7.5
2017-Dec-08 20:00N 45°42' W 083°36'338.8 320 / 191005.9 -5.1 6.0
2017-Dec-08 19:54N 45°39' W 083°37'3 8.0
2017-Dec-08 19:30N 45°36' W 083°35'4 7.9
2017-Dec-08 19:00N 45°33' W 083°32'3336.6
2017-Dec-08 19:00N 45°36' W 083°30'714.7 300 / 191005.5 -3.7 5.8
2017-Dec-08 18:30N 45°29' W 083°28'610.9
2017-Dec-08 18:00N 45°24' W 083°24'0167.2
2017-Dec-08 18:00N 45°24' W 083°24'1514.7 300 / 231004.9 -3.5 6.2
2017-Dec-08 17:00N 45°12' W 083°12'7 7.3 230 / 241005.9 -2.8 5.7
2017-Dec-08 16:00N 45°06' W 083°06'1818.0 240 / 211006.9 -3.0 5.2
2017-Dec-08 15:00N 44°48' W 083°06'1212.0 230 / 161007.910.8 -3.3 6.4
2017-Dec-08 14:00N 44°36' W 083°06'1312.7 220 / 211007.910.8 -3.6 5.8
2017-Dec-08 13:00N 44°24' W 083°12'1212.0 210 / 241008.9 -3.0 6.1
2017-Dec-08 12:00N 44°12' W 083°12'9 8.6 230 / 301009.3 -1.6 6.4
2017-Dec-08 11:00N 44°12' W 083°00'1010.5 240 / 301009.6 -1.9 6.7
2017-Dec-08 10:00N 44°06' W 082°48'   220 / 251010.6 -2.5 5.4
Track history (hours):
 
Tides and Currents Weather Stations Pressure Air Temp Water Temp Dewpoint Dewpoint Depression Visibility Wind Speed Wind Dir Waves Ship Positions

Paul R Tregurtha

Owner: THE INTERLAKE STEAMSHIP COMPANY, Middleburg Heights, OH. More information available from US FCC via Universal Licensing System and Coast Guard Vessel Documentation Center.

Last reported at 2017-Dec-18 10:00 UTC. Time now 2017-Dec-18 11:08 UTC.
Position N 46°48' W 084°54'.

Length 309 m; draft 7 m.

Type: Cargo ship. MMSI: 366904940.

Wind from 170 at 14 knots

Barometer 1011.9 mb
Air temperature -2.0 ° C
Water temperature 3.0 ° C

Date/timePositionNaut miles runAvg speedWind from/ knotsBaromVisibWave heightAir tempDewpointWater temp
2017-Dec-18 10:00N 46°48' W 084°54'1514.6 170 / 141011.9 -2.0 3.0
2017-Dec-18 09:00N 46°36' W 084°42'1010.2 140 / 161012.2 -4.4 3.4
2017-Dec-18 08:00N 46°30' W 084°30'4 4.1 080 / 71013.5 -5.8 1.4
2017-Dec-18 07:00N 46°30' W 084°24'4 4.1 070 / 41013.9 -4.4 1.1
2017-Dec-18 06:00N 46°30' W 084°18'7 7.3 080 / 61015.0 -6.4 1.0
2017-Dec-18 05:00N 46°24' W 084°12'7 7.3 100 / 51015.7 -6.5 0.8
2017-Dec-18 04:00N 46°18' W 084°06'6 6.0 120 / 71016.0 -6.6 0.4
2017-Dec-18 03:00N 46°12' W 084°06'7 7.3 070 / 51016.4 -5.2 0.7
2017-Dec-18 02:00N 46°06' W 084°00'1312.7 100 / 111017.1 -4.6 0.9
2017-Dec-18 01:00N 45°54' W 083°54'1516.6 150 / 151017.1 -0.7 4.2
2017-Dec-18 00:05N 45°42' W 083°41'113.8
2017-Dec-18 00:00N 45°41' W 083°40'2302.6
2017-Dec-18 00:00N 45°42' W 083°42'817.2 160 / 161018.1 -1.5 5.7
2017-Dec-17 23:30N 45°36' W 083°34'713.8
2017-Dec-17 23:00N 45°30' W 083°29'183.7
2017-Dec-17 23:00N 45°30' W 083°30'815.5 170 / 121019.4 -1.5 5.0
2017-Dec-17 22:30N 45°24' W 083°23'714.0
2017-Dec-17 22:00N 45°18' W 083°18'1514.7 150 / 101020.1 -2.1 5.1
2017-Dec-17 21:00N 45°06' W 083°06'1312.7 160 / 131020.4 -2.4 4.9
2017-Dec-17 20:00N 44°54' W 083°00'1312.7 130 / 131020.8 -3.1 5.0
2017-Dec-17 19:00N 44°42' W 082°54'1312.7 140 / 111021.8 -3.4 5.3
2017-Dec-17 18:00N 44°30' W 082°48'4013.3 130 / 121022.1 -3.6 5.2
2017-Dec-17 15:00N 43°54' W 082°24'1212.0 100 / 131023.8 -3.4 5.4
2017-Dec-17 14:00N 43°42' W 082°24'1212.0 100 / 131023.8 -3.4 5.0
2017-Dec-17 13:00N 43°30' W 082°24'1818.0 110 / 141024.2 -3.0 3.8
2017-Dec-17 12:00N 43°12' W 082°24'1212.0 100 / 121023.8 -3.2 3.9
2017-Dec-17 11:00N 43°00' W 082°24'7 7.4 100 / 111023.5 -4.7 3.0
2017-Dec-17 10:00N 42°54' W 082°30'6 6.0 120 / 71023.5 -4.8 2.5
2017-Dec-17 09:00N 42°48' W 082°30'1212.0 070 / 91022.8 -5.3 2.4
2017-Dec-17 08:00N 42°36' W 082°30'1110.7 080 / 61022.5 -5.2 2.4
2017-Dec-17 07:00N 42°30' W 082°42'7 7.5 060 / 111021.6 -4.7 2.1
2017-Dec-17 06:00N 42°24' W 082°48'33 1.0 060 / 101021.9 -3.6 0.2
2017-Dec-15 20:00N 41°54' W 083°06'1212.0 230 / 321009.0 -2.7 0.2
2017-Dec-15 19:00N 42°06' W 083°06'6 6.0 260 / 251008.3 -3.5 0.3
2017-Dec-15 18:00N 42°12' W 083°06'7 7.5 260 / 191007.7 -4.0 0.4
2017-Dec-15 17:00N 42°18' W 083°00'1110.7 220 / 121009.8 -4.6 0.4
2017-Dec-15 16:00N 42°24' W 082°48'1110.7 220 / 201009.8 -4.5 0.7
2017-Dec-15 15:00N 42°30' W 082°36'1312.8 220 / 191011.1 -4.1 3.0
2017-Dec-15 14:00N 42°42' W 082°30'6 6.0 230 / 101012.3 -4.7 3.0
2017-Dec-15 13:00N 42°48' W 082°30'0 0.0 250 / 71013.0 -4.3 5.0
2017-Dec-15 12:00N 42°48' W 082°30'0 0.0 270 / 91013.3 -5.6 5.3
2017-Dec-15 11:00N 42°48' W 082°30'0 0.0 290 / 51014.0 -6.0 5.2
2017-Dec-15 10:00N 42°48' W 082°30'0 0.0 280 / 31014.7 -7.1 5.0
2017-Dec-15 09:00N 42°48' W 082°30'0 0.0 290 / 31015.4 -7.7 5.0
2017-Dec-15 08:00N 42°48' W 082°30'0 0.0 260 / 21016.0 -7.1 4.7
2017-Dec-15 07:00N 42°48' W 082°30'0 0.0 290 / 11016.4 -7.8 5.3
2017-Dec-15 06:00N 42°48' W 082°30'0 0.0 270 / 11017.1 -7.6 5.0
2017-Dec-15 05:00N 42°48' W 082°30'0 0.0 320 / 21017.7 -10.6 5.1
2017-Dec-15 04:00N 42°48' W 082°30'0 0.0 260 / 51018.1 -8.6 4.7
2017-Dec-15 03:00N 42°48' W 082°30'0 0.0 310 / 21018.4 -10.0 4.8
2017-Dec-15 02:00N 42°48' W 082°30'6 6.0 160 / 31018.4 -9.5 3.2
2017-Dec-15 01:00N 42°54' W 082°30'7 7.4 260 / 41018.4 -10.4 3.0
2017-Dec-15 00:00N 43°00' W 082°24'1212.0 230 / 81017.7 -8.6 3.0
2017-Dec-14 23:00N 43°12' W 082°24'1212.0 260 / 131016.7 -8.6 4.3
2017-Dec-14 22:00N 43°24' W 082°24'1312.8 290 / 141016.4 -9.0 3.3
2017-Dec-14 21:00N 43°36' W 082°30'1212.0 270 / 141016.0 -8.9 4.9
2017-Dec-14 20:00N 43°48' W 082°30'1918.5 290 / 171015.4 -7.8 5.5
2017-Dec-14 19:00N 44°06' W 082°36'1312.7 280 / 141015.4 -6.7 5.6
2017-Dec-14 18:00N 44°18' W 082°42'3110.4 310 / 141015.4 -7.5 5.6
2017-Dec-14 15:00N 44°48' W 082°54'1312.7 310 / 201014.0 -8.5 5.2
2017-Dec-14 14:00N 45°00' W 083°00'1514.7 330 / 211013.0 -8.0 5.3
2017-Dec-14 13:00N 45°12' W 083°12'1216.0 350 / 19 -9.7
2017-Dec-14 12:14N 45°23' W 083°19'312.8
2017-Dec-14 12:00N 45°25' W 083°21'3187.7
2017-Dec-14 12:00N 45°24' W 083°18'918.4 320 / 151012.0 -10.8 5.3
2017-Dec-14 11:30N 45°31' W 083°26'612.7
2017-Dec-14 11:00N 45°36' W 083°32'1121.6
2017-Dec-14 11:00N 45°36' W 083°30'714.3 310 / 14 -11.4
2017-Dec-14 10:30N 45°41' W 083°37'612.5
2017-Dec-14 10:01N 45°46' W 083°42'1211.3
2017-Dec-14 09:00N 45°54' W 083°54'1312.7 010 / 121010.6 -16.0 1.0
2017-Dec-14 08:00N 46°06' W 084°00'7 7.3 350 / 101010.6 -18.0 0.3
2017-Dec-14 07:00N 46°12' W 084°06'4 4.2 350 / 91009.9 -18.3 0.3
2017-Dec-14 06:00N 46°12' W 084°12'6 6.0 360 / 71009.6 -17.9 0.3
2017-Dec-14 05:00N 46°18' W 084°12'1312.7 350 / 91009.3 -16.1 0.5
2017-Dec-14 04:00N 46°30' W 084°18'0 0.0 1008.9 -17.2 1.0
2017-Dec-14 03:00N 46°30' W 084°18'4 4.1 070 / 31008.3 -16.8 1.2
2017-Dec-14 02:00N 46°30' W 084°24'0 0.0 060 / 71007.8 -15.9 1.2
2017-Dec-14 01:00N 46°30' W 084°24'0 0.0 080 / 81007.5 -14.8 1.2
2017-Dec-14 00:00N 46°30' W 084°24'0 0.0 030 / 61007.1 -13.2 1.2
2017-Dec-13 23:00N 46°30' W 084°24'169 9.9 100 / 81006.4 -12.5 1.3
2017-Dec-13 06:00N 47°36' W 088°12'1212.1 180 / 141008.5 -8.9 4.6
2017-Dec-13 05:00N 47°36' W 088°30'1413.5 330 / 21009.8 -9.2 4.7
2017-Dec-13 04:00N 47°30' W 088°48'1212.2 060 / 31010.5 -9.2 4.8
2017-Dec-13 03:00N 47°30' W 089°06'1413.6 210 / 41011.5 -9.2 4.7
2017-Dec-13 02:00N 47°24' W 089°24'1212.2 170 / 31012.5 -9.2 4.8
2017-Dec-13 01:00N 47°24' W 089°42'1212.2 270 / 21013.5 -9.5 4.8
2017-Dec-13 00:00N 47°24' W 090°00'1413.6 230 / 21013.5 -9.7 4.2
2017-Dec-12 23:00N 47°18' W 090°18'8 8.1 220 / 51014.2 -9.6 4.0
2017-Dec-12 22:00N 47°18' W 090°30'1413.6 180 / 41014.9 -9.4 3.8
2017-Dec-12 21:00N 47°12' W 090°48'1413.6 240 / 61015.6 -9.3 4.5
2017-Dec-12 20:00N 47°06' W 091°06'1413.7 240 / 61016.6 -9.9 4.6
2017-Dec-12 19:00N 47°00' W 091°24'1111.0 230 / 61017.6 -10.5 4.5
2017-Dec-12 18:00N 46°56' W 091°39'3190.5
2017-Dec-12 18:00N 46°54' W 091°36'715.1 250 / 71019.3 -11.5 4.2
2017-Dec-12 17:31N 46°53' W 091°47'612.1
2017-Dec-12 17:00N 46°51' W 091°55'3280.8
2017-Dec-12 17:00N 46°48' W 091°54'611.7 260 / 71020.7 -12.6 3.4
2017-Dec-12 16:31N 46°48' W 092°02'3 6.4
2017-Dec-12 16:00N 46°46' W 092°06'2187.9
2017-Dec-12 16:00N 46°48' W 092°06'3 6.4 200 / 41021.3 -14.5 0.7
2017-Dec-12 15:27N 46°45' W 092°07'0 0.0
2017-Dec-12 15:00N 46°45' W 092°07'31192.0
2017-Dec-12 15:00N 46°42' W 092°06'3 5.3 280 / 51022.0 -13.2 0.3
2017-Dec-12 14:30N 46°45' W 092°07'3 5.3
2017-Dec-12 14:00N 46°42' W 092°06'355.1 290 / 101022.4 -14.9 0.4
2017-Dec-12 13:57N 46°45' W 092°07'0 0.0
2017-Dec-12 13:27N 46°45' W 092°07'3 5.9
2017-Dec-12 13:00N 46°42' W 092°06'357.1 320 / 71022.7 -15.4 0.5
2017-Dec-12 12:57N 46°45' W 092°07'0 0.0
2017-Dec-12 12:30N 46°45' W 092°07'3 5.3
2017-Dec-12 12:00N 46°42' W 092°06'355.4 280 / 71023.0 -13.7 0.5
2017-Dec-12 11:57N 46°45' W 092°07'0 0.0
2017-Dec-12 11:30N 46°45' W 092°07'0 0.0
2017-Dec-12 11:00N 46°45' W 092°07'31059.5
2017-Dec-12 11:00N 46°42' W 092°06'3 5.3 260 / 81023.7 -13.0 0.4
2017-Dec-12 10:30N 46°45' W 092°07'0 0.0
2017-Dec-12 10:00N 46°45' W 092°07'31358.8
2017-Dec-12 10:00N 46°42' W 092°06'3 5.3 330 / 81023.7 -12.8 0.6
2017-Dec-12 09:30N 46°45' W 092°07'0 0.0
2017-Dec-12 09:00N 46°45' W 092°07'31907.2
2017-Dec-12 09:00N 46°42' W 092°06'3 5.3 230 / 41023.7 -11.9 0.8
2017-Dec-12 08:30N 46°45' W 092°07'0 0.0
2017-Dec-12 08:00N 46°45' W 092°07'0 0.0
2017-Dec-12 07:30N 46°45' W 092°07'0 0.0
2017-Dec-12 07:00N 46°45' W 092°07'32384.0
2017-Dec-12 07:00N 46°42' W 092°06'3 5.3 290 / 51023.4 -11.5 0.9
2017-Dec-12 06:30N 46°45' W 092°07'0 0.0
2017-Dec-12 06:00N 46°45' W 092°07'31907.2
2017-Dec-12 06:00N 46°42' W 092°06'3 4.8 310 / 61023.4 -11.1 0.7
2017-Dec-12 05:27N 46°45' W 092°07'3 5.9
2017-Dec-12 05:00N 46°42' W 092°06'326.9 330 / 91023.0 -10.6 0.7
2017-Dec-12 04:54N 46°45' W 092°07'0 0.0
2017-Dec-12 04:30N 46°45' W 092°07'3 5.3
2017-Dec-12 04:00N 46°42' W 092°06'354.2 280 / 61022.7 -9.3 0.6
2017-Dec-12 03:57N 46°45' W 092°07'0 0.1
2017-Dec-12 03:24N 46°45' W 092°07'0 0.1
2017-Dec-12 03:00N 46°45' W 092°07'33222.2
2017-Dec-12 03:00N 46°42' W 092°06'3 5.6 330 / 101022.0 -8.8 0.6
2017-Dec-12 02:26N 46°45' W 092°06'3 6.5
2017-Dec-12 02:00N 46°48' W 092°06'2382.7 280 / 41021.3 -5.9 1.1
2017-Dec-12 01:59N 46°46' W 092°06'0 0.0
2017-Dec-12 01:30N 46°46' W 092°06'0 0.0
2017-Dec-12 01:00N 46°46' W 092°06'2200.0
2017-Dec-12 01:00N 46°48' W 092°06'2 4.3 320 / 41020.3 -6.3 1.2
2017-Dec-12 00:30N 46°46' W 092°06'4 7.4
2017-Dec-12 00:00N 46°48' W 092°02'183.3
2017-Dec-12 00:00N 46°48' W 092°00'611.3 320 / 131019.0 -6.5 3.5
2017-Dec-11 23:30N 46°51' W 091°53'713.0
2017-Dec-11 23:00N 46°55' W 091°46'2151.8
2017-Dec-11 23:00N 46°54' W 091°48'1717.2 340 / 151017.3 -6.1 4.7
2017-Dec-11 22:00N 47°06' W 091°30'1010.1 350 / 221015.9 -5.3 4.7
2017-Dec-11 21:00N 47°12' W 091°18'6 6.0 350 / 211013.5 -4.9 4.8
2017-Dec-11 20:00N 47°18' W 091°18'0 0.0 260 / 131012.2 -3.2 3.4
2017-Dec-11 19:00N 47°18' W 091°18'0 0.0 270 / 141010.8 -2.2 3.3
2017-Dec-11 18:00N 47°18' W 091°18'0 0.0 270 / 101009.8 -1.8 3.3
2017-Dec-11 17:00N 47°18' W 091°18'0 0.0 260 / 141008.5 -1.2 3.2
2017-Dec-11 16:00N 47°18' W 091°18'0 0.0 120 / 41008.5 -3.0 3.2
2017-Dec-11 15:00N 47°18' W 091°18'0 0.0 120 / 31008.1 -2.9 3.2
2017-Dec-11 14:00N 47°18' W 091°18'0 0.0 090 / 21007.8 -3.2 3.2
2017-Dec-11 13:00N 47°18' W 091°18'0 0.0 180 / 51007.8 -4.0 3.1
2017-Dec-11 12:00N 47°18' W 091°18'0 0.0 150 / 61008.1 -4.5 3.0
2017-Dec-11 11:00N 47°18' W 091°18'0 0.0 150 / 81009.1 -5.0 3.2
2017-Dec-11 10:00N 47°18' W 091°18'0 0.0 140 / 61010.2 -5.4 3.4
2017-Dec-11 09:00N 47°18' W 091°18'0 0.0 110 / 11010.8 -5.0 3.4
2017-Dec-11 08:00N 47°18' W 091°18'0 0.0 260 / 21012.5 -5.6 3.5
2017-Dec-11 07:00N 47°18' W 091°18'0 0.0 240 / 21013.9 -6.7 3.5
2017-Dec-11 06:00N 47°18' W 091°18'0 0.0 230 / 61015.2 -9.0 3.5
2017-Dec-11 05:00N 47°18' W 091°18'0 0.0 220 / 61015.6 -9.6 3.6
2017-Dec-11 04:00N 47°18' W 091°18'0 0.0 240 / 81016.3 -10.3 3.6
2017-Dec-11 03:00N 47°18' W 091°18'6 6.0 330 / 41016.9 -7.7 4.8
2017-Dec-11 02:00N 47°12' W 091°18'1514.5 330 / 51017.3 -6.7 4.8
2017-Dec-11 01:00N 47°00' W 091°30'1115.6 1017.6 -6.1 4.6
2017-Dec-11 00:18N 46°56' W 091°44'412.3
2017-Dec-11 00:01N 46°53' W 091°49'141.9
2017-Dec-11 00:00N 46°54' W 091°48'714.1 300 / 51017.9 -5.8 4.0
2017-Dec-10 23:30N 46°50' W 091°56'611.8
2017-Dec-10 23:01N 46°47' W 092°04'3160.3
2017-Dec-10 23:00N 46°48' W 092°00'5 9.7 340 / 91018.3 -5.8 2.6
2017-Dec-10 22:31N 46°45' W 092°06'1 2.3
2017-Dec-10 22:00N 46°45' W 092°07'3198.7
2017-Dec-10 22:00N 46°42' W 092°06'3 5.4 320 / 71018.3 -5.3 1.4
2017-Dec-10 21:30N 46°45' W 092°07'0 0.0
2017-Dec-10 21:00N 46°45' W 092°07'3202.9
2017-Dec-10 21:00N 46°42' W 092°06'3 5.5 330 / 81017.6 -4.8 1.0
2017-Dec-10 20:30N 46°45' W 092°07'0 0.0
2017-Dec-10 20:00N 46°45' W 092°07'3176.6
2017-Dec-10 20:00N 46°42' W 092°06'3 5.4 300 / 131017.3 -4.9 0.9
2017-Dec-10 19:30N 46°45' W 092°07'0 0.0
2017-Dec-10 19:00N 46°45' W 092°07'3202.4
2017-Dec-10 19:00N 46°42' W 092°06'3 5.5 300 / 71016.9 -4.7 0.7
2017-Dec-10 18:30N 46°45' W 092°07'0 0.0
2017-Dec-10 18:00N 46°45' W 092°07'3179.9
2017-Dec-10 18:00N 46°42' W 092°06'3 5.4 330 / 81016.6 -5.2 0.9
2017-Dec-10 17:30N 46°45' W 092°07'0 0.0
2017-Dec-10 17:00N 46°45' W 092°07'3198.2
2017-Dec-10 17:00N 46°42' W 092°06'3 5.4 320 / 161016.6 -5.5 0.9
2017-Dec-10 16:30N 46°45' W 092°07'0 0.0
2017-Dec-10 16:00N 46°45' W 092°07'3179.9
2017-Dec-10 16:00N 46°42' W 092°06'3 5.4 340 / 121015.9 -5.6 0.8
2017-Dec-10 15:30N 46°45' W 092°07'3 5.2
2017-Dec-10 15:00N 46°42' W 092°06'319.3 1014.9 -5.4 0.9
2017-Dec-10 14:51N 46°45' W 092°07'0 0.0
2017-Dec-10 14:30N 46°45' W 092°07'0 0.0
2017-Dec-10 14:00N 46°45' W 092°07'3207.3
2017-Dec-10 14:00N 46°42' W 092°06'3 4.9 060 / 101013.9 -5.5 0.9
2017-Dec-10 13:27N 46°45' W 092°07'0 0.0
2017-Dec-10 13:00N 46°45' W 092°07'3198.7
2017-Dec-10 13:00N 46°42' W 092°06'3 5.5 100 / 91013.2 -4.9 0.8
2017-Dec-10 12:30N 46°45' W 092°07'0 0.1
2017-Dec-10 12:00N 46°45' W 092°07'3163.7
2017-Dec-10 12:00N 46°42' W 092°06'3 5.7 270 / 71012.2 -4.8 0.8
2017-Dec-10 11:31N 46°45' W 092°07'1 2.1
2017-Dec-10 11:01N 46°46' W 092°06'2144.5
2017-Dec-10 11:00N 46°48' W 092°06'3 7.1 320 / 131011.5 -3.2 1.1
2017-Dec-10 10:30N 46°48' W 092°01'612.6
2017-Dec-10 10:00N 46°51' W 091°52'3254.1
2017-Dec-10 10:00N 46°48' W 091°54'917.3 320 / 101010.2 -4.2 4.1
2017-Dec-10 09:30N 46°53' W 091°43'612.7
2017-Dec-10 09:00N 46°55' W 091°35'198.5
2017-Dec-10 09:00N 46°54' W 091°36'714.6 290 / 101009.5 -4.4 4.8
2017-Dec-10 08:29N 46°57' W 091°26'612.8
2017-Dec-10 08:00N 47°00' W 091°18'8 8.2 280 / 131009.1 -4.0 4.4
2017-Dec-10 07:00N 47°00' W 091°06'1413.7 260 / 171008.8 -3.9 4.3
2017-Dec-10 06:00N 47°06' W 090°48'1413.6 260 / 181009.1 -4.8 3.8
2017-Dec-10 05:00N 47°12' W 090°30'8 8.2 220 / 171009.5 -5.2 4.0
2017-Dec-10 04:00N 47°12' W 090°18'1212.2 210 / 181010.2 -6.2 4.7
2017-Dec-10 03:00N 47°12' W 090°00'1413.6 210 / 181011.2 -6.2 4.9
2017-Dec-10 02:00N 47°18' W 089°42'8 8.1 260 / 191011.9 -6.0 5.0
2017-Dec-10 01:00N 47°18' W 089°30'1413.6 250 / 161012.2 -5.5 4.8
2017-Dec-10 00:00N 47°24' W 089°12'1212.2 270 / 171013.2 -6.1 4.8
2017-Dec-09 23:00N 47°24' W 088°54'1413.6 290 / 171013.2 -6.9 4.9
2017-Dec-09 22:00N 47°30' W 088°36'1212.2 270 / 131013.9 -8.2 4.7
2017-Dec-09 21:00N 47°30' W 088°18'1212.2 290 / 141013.9 -9.5 4.8
2017-Dec-09 20:00N 47°30' W 088°00'1212.2 330 / 121013.9 -8.6 4.8
2017-Dec-09 19:00N 47°30' W 087°42'1212.2 340 / 81014.2 -9.0 4.8
2017-Dec-09 18:00N 47°30' W 087°24'8 8.1 350 / 171013.9 -8.7 4.8
2017-Dec-09 17:00N 47°30' W 087°12'1010.1 360 / 181013.5 -8.6 4.7
2017-Dec-09 16:00N 47°24' W 087°00'1010.1 1012.5 -8.4 4.8
2017-Dec-09 15:00N 47°18' W 086°48'7610.8 020 / 201012.2 5.4 -8.3 4.8
2017-Dec-09 08:00N 46°48' W 085°06'1010.2 170 / 151008.5 -6.2 4.7
2017-Dec-09 07:00N 46°42' W 084°54'1010.2 160 / 121008.1 -6.1 5.9
2017-Dec-09 06:00N 46°36' W 084°42'1010.2 140 / 181007.8 -7.1 5.7
2017-Dec-09 05:00N 46°30' W 084°30'4 4.1 120 / 111008.8 -8.7 4.1
2017-Dec-09 04:00N 46°30' W 084°24'4 4.1 110 / 71009.1 -8.8 3.9
2017-Dec-09 03:00N 46°30' W 084°18'6 6.0 100 / 71009.3 -7.1 3.5
2017-Dec-09 02:00N 46°24' W 084°18'4 4.1 100 / 71008.9 -8.1 3.5
2017-Dec-09 01:00N 46°24' W 084°12'7 7.3 060 / 81008.6 -8.6 3.3
2017-Dec-09 00:00N 46°18' W 084°06'1312.7 080 / 61008.6 -8.7 3.1
2017-Dec-08 23:00N 46°06' W 084°00'7 7.3 320 / 41008.9 -7.5 3.1
2017-Dec-08 22:00N 46°00' W 083°54'1312.7 010 / 61007.9 -6.9 4.6
2017-Dec-08 21:00N 45°48' W 083°48'813.7 330 / 151007.2 -6.0 6.1
2017-Dec-08 20:25N 45°42' W 083°41'3 7.5
2017-Dec-08 20:00N 45°42' W 083°36'338.8 320 / 191005.9 -5.1 6.0
2017-Dec-08 19:54N 45°39' W 083°37'3 8.0
2017-Dec-08 19:30N 45°36' W 083°35'4 7.9
2017-Dec-08 19:00N 45°33' W 083°32'3336.6
2017-Dec-08 19:00N 45°36' W 083°30'714.7 300 / 191005.5 -3.7 5.8
2017-Dec-08 18:30N 45°29' W 083°28'610.9
2017-Dec-08 18:00N 45°24' W 083°24'0167.2
2017-Dec-08 18:00N 45°24' W 083°24'1514.7 300 / 231004.9 -3.5 6.2
2017-Dec-08 17:00N 45°12' W 083°12'7 7.3 230 / 241005.9 -2.8 5.7
2017-Dec-08 16:00N 45°06' W 083°06'1818.0 240 / 211006.9 -3.0 5.2
2017-Dec-08 15:00N 44°48' W 083°06'1212.0 230 / 161007.910.8 -3.3 6.4
2017-Dec-08 14:00N 44°36' W 083°06'1312.7 220 / 211007.910.8 -3.6 5.8
2017-Dec-08 13:00N 44°24' W 083°12'1212.0 210 / 241008.9 -3.0 6.1
2017-Dec-08 12:00N 44°12' W 083°12'9 8.6 230 / 301009.3 -1.6 6.4
2017-Dec-08 11:00N 44°12' W 083°00'1010.5 240 / 301009.6 -1.9 6.7
2017-Dec-08 10:00N 44°06' W 082°48'   220 / 251010.6 -2.5 5.4

Dump ship's entire track history